createdAt,value
2022-11-30T00:01:08.746Z,5.13
2022-11-30T00:03:35.418Z,5.06
2022-11-30T00:06:13.850Z,5.01
2022-11-30T00:08:40.466Z,4.98
2022-11-30T00:11:15.354Z,4.96
2022-11-30T00:13:42.193Z,4.99
2022-11-30T00:16:09.119Z,5.00
2022-11-30T00:18:36.375Z,5.00
2022-11-30T00:21:06.257Z,4.98
2022-11-30T00:23:34.630Z,4.96
2022-11-30T00:26:05.554Z,4.92
2022-11-30T00:28:33.703Z,4.92
2022-11-30T00:31:02.692Z,4.92
2022-11-30T00:33:29.704Z,4.92
2022-11-30T00:36:00.509Z,4.91
2022-11-30T00:38:27.619Z,4.91
2022-11-30T00:40:54.618Z,4.87
2022-11-30T00:43:21.381Z,4.84
2022-11-30T00:45:48.158Z,4.80
2022-11-30T00:48:15.928Z,4.74
2022-11-30T00:50:42.721Z,4.70
2022-11-30T00:53:09.430Z,4.70
2022-11-30T00:55:36.020Z,4.69
2022-11-30T00:58:02.668Z,4.70
2022-11-30T01:00:29.367Z,4.68
2022-11-30T01:02:56.967Z,4.68
2022-11-30T01:05:23.612Z,4.68
2022-11-30T01:07:50.390Z,4.69
2022-11-30T01:10:17.662Z,4.69
2022-11-30T01:12:44.352Z,4.66
2022-11-30T01:15:11.346Z,4.58
2022-11-30T01:17:38.188Z,4.51
2022-11-30T01:20:08.191Z,4.45
2022-11-30T01:22:35.937Z,4.45
2022-11-30T01:25:03.221Z,4.44
2022-11-30T01:27:29.878Z,4.45
2022-11-30T01:29:56.820Z,4.37
2022-11-30T01:32:23.525Z,4.30
2022-11-30T01:34:50.126Z,4.29
2022-11-30T01:37:16.769Z,4.30
2022-11-30T01:39:43.399Z,4.29
2022-11-30T01:42:18.928Z,4.30
2022-11-30T01:44:55.010Z,4.28
2022-11-30T01:47:30.618Z,4.23
2022-11-30T01:50:10.468Z,4.21
2022-11-30T01:52:40.219Z,4.19
2022-11-30T01:55:27.150Z,4.20
2022-11-30T01:58:01.924Z,4.19
2022-11-30T02:00:28.867Z,4.21
2022-11-30T02:03:11.370Z,4.18
2022-11-30T02:05:41.517Z,4.19
2022-11-30T02:08:10.995Z,4.19
2022-11-30T02:10:52.721Z,4.18
2022-11-30T02:13:34.718Z,4.21
2022-11-30T02:16:39.477Z,4.22
2022-11-30T02:19:25.751Z,4.20
2022-11-30T02:21:57.995Z,4.20
2022-11-30T02:24:55.392Z,4.16
2022-11-30T02:27:30.186Z,4.13
2022-11-30T02:30:05.605Z,4.16
2022-11-30T02:32:39.104Z,4.15
2022-11-30T02:35:08.885Z,4.10
2022-11-30T02:37:37.718Z,4.06
2022-11-30T02:40:14.530Z,4.05
2022-11-30T02:42:41.260Z,4.01
2022-11-30T02:45:09.754Z,3.99
2022-11-30T02:47:48.311Z,4.04
2022-11-30T02:50:21.133Z,4.10
2022-11-30T02:52:48.590Z,4.16
2022-11-30T02:55:17.890Z,4.24
2022-11-30T02:57:44.629Z,4.30
2022-11-30T03:00:13.150Z,4.39
2022-11-30T03:02:40.890Z,4.48
2022-11-30T03:05:09.167Z,4.55
2022-11-30T03:07:35.890Z,4.59
2022-11-30T03:10:03.014Z,4.62
2022-11-30T03:12:29.801Z,4.64
2022-11-30T03:14:56.394Z,4.68
2022-11-30T03:17:23.256Z,4.70
2022-11-30T03:19:49.886Z,4.72
2022-11-30T03:22:16.589Z,4.73
2022-11-30T03:24:43.189Z,4.74
2022-11-30T03:27:09.911Z,4.74
2022-11-30T03:29:36.752Z,4.72
2022-11-30T03:32:03.660Z,4.71
2022-11-30T03:34:30.270Z,4.71
2022-11-30T03:36:57.350Z,4.72
2022-11-30T03:39:24.371Z,4.74
2022-11-30T03:41:51.781Z,4.77
2022-11-30T03:44:18.609Z,4.81
2022-11-30T03:46:45.388Z,4.82
2022-11-30T03:49:12.070Z,4.87
2022-11-30T03:51:38.745Z,4.89
2022-11-30T03:54:05.499Z,4.91
2022-11-30T03:56:32.303Z,4.90
2022-11-30T03:58:58.996Z,4.88
2022-11-30T04:01:26.772Z,4.92
2022-11-30T04:03:54.341Z,4.93
2022-11-30T04:06:21.849Z,4.94
2022-11-30T04:08:48.908Z,4.90
2022-11-30T04:11:17.197Z,4.88
2022-11-30T04:13:44.957Z,4.84
2022-11-30T04:16:11.783Z,4.83
2022-11-30T04:18:39.169Z,4.80
2022-11-30T04:21:07.305Z,4.77
2022-11-30T04:23:36.840Z,4.73
2022-11-30T04:26:08.229Z,4.73
2022-11-30T04:28:35.390Z,4.72
2022-11-30T04:31:03.091Z,4.81
2022-11-30T04:33:30.042Z,4.80
2022-11-30T04:35:59.661Z,4.77
2022-11-30T04:38:26.697Z,4.73
2022-11-30T04:40:53.902Z,4.71
2022-11-30T04:43:21.868Z,4.70
2022-11-30T04:45:48.605Z,4.74
2022-11-30T04:48:16.017Z,4.80
2022-11-30T04:50:42.615Z,4.83
2022-11-30T04:53:09.886Z,4.85
2022-11-30T04:55:38.043Z,4.86
2022-11-30T04:58:05.486Z,4.90
2022-11-30T05:00:33.031Z,4.97
2022-11-30T05:02:59.679Z,4.99
2022-11-30T05:05:26.315Z,5.04
2022-11-30T05:07:58.115Z,5.15
2022-11-30T05:10:25.929Z,5.23
2022-11-30T05:12:53.381Z,5.30
2022-11-30T05:15:20.476Z,5.36
2022-11-30T05:17:47.195Z,5.44
2022-11-30T05:20:14.174Z,5.56
2022-11-30T05:22:40.883Z,5.62
2022-11-30T05:25:08.611Z,5.71
2022-11-30T05:27:35.958Z,5.79
2022-11-30T05:30:03.310Z,5.82
2022-11-30T05:32:29.948Z,5.83
2022-11-30T05:34:56.790Z,5.86
2022-11-30T05:37:23.772Z,5.90
2022-11-30T05:39:50.463Z,5.98
2022-11-30T05:42:17.120Z,6.00
2022-11-30T05:44:43.785Z,6.09
2022-11-30T05:47:10.683Z,6.12
2022-11-30T05:49:37.409Z,6.16
2022-11-30T05:52:04.119Z,6.19
2022-11-30T05:54:30.788Z,6.21
2022-11-30T05:56:57.374Z,6.25
2022-11-30T05:59:24.067Z,6.27
2022-11-30T06:01:54.208Z,6.37
2022-11-30T06:04:21.772Z,6.43
2022-11-30T06:06:49.611Z,6.45
2022-11-30T06:09:16.656Z,6.51
2022-11-30T06:11:43.352Z,6.53
2022-11-30T06:14:09.960Z,6.55
2022-11-30T06:16:39.374Z,6.60
2022-11-30T06:19:06.339Z,6.62
2022-11-30T06:21:33.020Z,6.61
2022-11-30T06:23:59.731Z,6.63
2022-11-30T06:26:26.497Z,6.64
2022-11-30T06:28:53.244Z,6.67
2022-11-30T06:31:19.970Z,6.70
2022-11-30T06:33:46.873Z,6.77
2022-11-30T06:36:13.490Z,6.81
2022-11-30T06:38:40.105Z,6.82
2022-11-30T06:41:08.801Z,6.81
2022-11-30T06:43:39.793Z,6.83
2022-11-30T06:46:07.648Z,6.81
2022-11-30T06:48:35.047Z,6.78
2022-11-30T06:51:04.935Z,6.74
2022-11-30T06:53:31.532Z,6.74
2022-11-30T06:55:58.288Z,6.78
2022-11-30T06:58:24.944Z,6.77
2022-11-30T07:00:51.627Z,6.79
2022-11-30T07:03:18.259Z,6.80
2022-11-30T07:05:46.608Z,6.80
2022-11-30T07:08:17.663Z,6.79
2022-11-30T07:10:46.151Z,6.79
2022-11-30T07:13:14.808Z,6.80
2022-11-30T07:15:42.556Z,6.79
2022-11-30T07:18:09.658Z,6.82
2022-11-30T07:20:36.954Z,6.82
2022-11-30T07:23:23.132Z,6.81
2022-11-30T07:26:06.631Z,6.78
2022-11-30T07:28:42.125Z,6.75
2022-11-30T07:31:27.255Z,6.74
2022-11-30T07:33:55.035Z,6.74
2022-11-30T07:36:23.165Z,6.77
2022-11-30T07:38:50.073Z,6.79
2022-11-30T07:41:16.707Z,6.78
2022-11-30T07:43:43.535Z,6.78
2022-11-30T07:46:13.100Z,6.78
2022-11-30T07:48:40.221Z,6.80
2022-11-30T07:51:12.170Z,6.80
2022-11-30T07:53:38.915Z,6.79
2022-11-30T07:56:07.499Z,6.80
2022-11-30T07:58:34.627Z,6.80
2022-11-30T08:01:07.529Z,6.78
2022-11-30T08:03:37.044Z,6.78
2022-11-30T08:06:09.893Z,6.77
2022-11-30T08:08:38.959Z,6.75
2022-11-30T08:11:07.443Z,6.74
2022-11-30T08:13:34.567Z,6.73
2022-11-30T08:16:07.597Z,6.72
2022-11-30T08:18:34.678Z,6.69
2022-11-30T08:21:03.827Z,6.67
2022-11-30T08:23:37.267Z,6.66
2022-11-30T08:26:06.835Z,6.67
2022-11-30T08:28:37.573Z,6.66
2022-11-30T08:31:07.968Z,6.65
2022-11-30T08:33:35.523Z,6.66
2022-11-30T08:36:09.369Z,6.66
2022-11-30T08:38:36.264Z,6.66
2022-11-30T08:41:03.630Z,6.70
2022-11-30T08:43:30.349Z,6.75
2022-11-30T08:45:57.626Z,6.81
2022-11-30T08:48:24.794Z,6.85
2022-11-30T08:50:51.441Z,6.93
2022-11-30T08:53:18.106Z,6.99
2022-11-30T08:55:54.593Z,7.05
2022-11-30T08:58:21.186Z,7.10
2022-11-30T09:00:47.877Z,7.15
2022-11-30T09:03:14.534Z,7.19
2022-11-30T09:05:41.207Z,7.27
2022-11-30T09:08:07.875Z,7.31
2022-11-30T09:10:34.772Z,7.34
2022-11-30T09:13:01.406Z,7.41
2022-11-30T09:15:28.059Z,7.45
2022-11-30T09:17:54.729Z,7.51
2022-11-30T09:20:21.469Z,7.54
2022-11-30T09:22:49.134Z,7.59
2022-11-30T09:25:15.842Z,7.63
2022-11-30T09:27:43.548Z,7.68
2022-11-30T09:30:10.666Z,7.70
2022-11-30T09:32:37.273Z,7.76
2022-11-30T09:35:05.836Z,7.79
2022-11-30T09:37:35.250Z,7.83
2022-11-30T09:40:02.065Z,7.86
2022-11-30T09:42:49.006Z,7.90
2022-11-30T09:45:30.647Z,7.93
2022-11-30T09:48:28.063Z,7.96
2022-11-30T09:50:55.166Z,7.97
2022-11-30T09:53:40.227Z,7.98
2022-11-30T09:56:18.917Z,8.03
2022-11-30T09:58:51.209Z,8.07
2022-11-30T10:01:19.305Z,8.09
2022-11-30T10:03:46.910Z,8.10
2022-11-30T10:06:26.352Z,8.11
2022-11-30T10:09:03.289Z,8.13
2022-11-30T10:11:42.484Z,8.15
2022-11-30T10:14:37.326Z,8.18
2022-11-30T10:17:22.336Z,8.19
2022-11-30T10:19:54.614Z,8.21
2022-11-30T10:22:46.592Z,8.25
2022-11-30T10:25:37.652Z,8.26
2022-11-30T10:28:46.447Z,8.27
2022-11-30T10:31:13.880Z,8.30
2022-11-30T10:33:55.169Z,8.32
2022-11-30T10:36:33.294Z,8.34
2022-11-30T10:39:03.924Z,8.36
2022-11-30T10:41:47.089Z,8.40
2022-11-30T10:44:40.700Z,8.41
2022-11-30T10:47:24.430Z,8.43
2022-11-30T10:49:52.777Z,8.45
2022-11-30T10:52:26.647Z,8.47
2022-11-30T10:55:02.284Z,8.50
2022-11-30T10:57:32.516Z,8.53
2022-11-30T11:00:02.501Z,8.55
2022-11-30T11:02:43.214Z,8.58
2022-11-30T11:05:30.936Z,8.61
2022-11-30T11:08:06.967Z,8.63
2022-11-30T11:10:45.152Z,8.66
2022-11-30T11:13:39.223Z,8.70
2022-11-30T11:16:08.907Z,8.74
2022-11-30T11:18:37.530Z,8.75
2022-11-30T11:21:09.955Z,8.78
2022-11-30T11:23:39.362Z,8.79
2022-11-30T11:26:08.640Z,8.80
2022-11-30T11:28:37.296Z,8.80
2022-11-30T11:31:19.034Z,8.84
2022-11-30T11:33:54.735Z,8.85
2022-11-30T11:36:32.056Z,8.87
2022-11-30T11:39:00.607Z,8.88
2022-11-30T11:41:34.032Z,8.90
2022-11-30T11:44:06.475Z,8.90
2022-11-30T11:46:38.065Z,8.92
2022-11-30T11:49:22.488Z,8.93
2022-11-30T11:52:03.197Z,8.94
2022-11-30T11:54:55.844Z,8.93
2022-11-30T11:57:33.674Z,8.93
2022-11-30T12:00:16.485Z,8.94
2022-11-30T12:03:02.441Z,8.94
2022-11-30T12:05:42.952Z,8.94
2022-11-30T12:08:24.843Z,8.96
2022-11-30T12:11:02.921Z,8.97
2022-11-30T12:13:37.246Z,8.98
2022-11-30T12:16:15.794Z,8.99
2022-11-30T12:19:15.495Z,9.03
2022-11-30T12:21:57.746Z,9.05
2022-11-30T12:24:55.316Z,9.08
2022-11-30T12:27:30.800Z,9.09
2022-11-30T12:30:03.183Z,9.12
2022-11-30T12:32:58.936Z,9.14
2022-11-30T12:35:44.919Z,9.15
2022-11-30T12:38:26.168Z,9.20
2022-11-30T12:41:20.513Z,9.25
2022-11-30T12:44:11.961Z,9.28
2022-11-30T12:46:56.989Z,9.30
2022-11-30T12:49:56.955Z,9.32
2022-11-30T12:52:46.009Z,9.34
2022-11-30T12:55:28.383Z,9.33
2022-11-30T12:58:00.899Z,9.34
2022-11-30T13:00:39.892Z,9.35
2022-11-30T13:03:19.291Z,9.37
2022-11-30T13:05:53.129Z,9.37
2022-11-30T13:08:42.860Z,9.39
2022-11-30T13:11:20.437Z,9.41
2022-11-30T13:13:54.218Z,9.43
2022-11-30T13:16:24.812Z,9.44
2022-11-30T13:18:55.291Z,9.47
2022-11-30T13:21:30.390Z,9.48
2022-11-30T13:23:56.986Z,9.47
2022-11-30T13:26:29.538Z,9.49
2022-11-30T13:29:20.646Z,9.50
2022-11-30T13:32:14.018Z,9.53
2022-11-30T13:34:49.345Z,9.54
2022-11-30T13:37:27.191Z,9.57
2022-11-30T13:39:57.785Z,9.59
2022-11-30T13:42:27.024Z,9.60
2022-11-30T13:44:54.498Z,9.61
2022-11-30T13:47:36.456Z,9.62
2022-11-30T13:50:25.045Z,9.61
2022-11-30T13:53:00.688Z,9.60
2022-11-30T13:55:56.406Z,9.61
2022-11-30T13:58:23.786Z,9.60
2022-11-30T14:01:32.297Z,9.60
2022-11-30T17:36:18.799Z,9.11
2022-11-30T17:38:45.807Z,9.11
2022-11-30T17:41:18.863Z,9.14
2022-11-30T17:43:46.966Z,9.13
2022-11-30T17:46:16.839Z,9.15
2022-11-30T17:48:44.094Z,9.15
2022-11-30T17:51:11.113Z,9.15
2022-11-30T17:53:39.264Z,9.15
2022-11-30T17:56:11.254Z,9.16
2022-11-30T17:58:43.297Z,9.16
2022-11-30T18:01:25.615Z,9.16
2022-11-30T18:03:53.389Z,9.15
2022-11-30T18:06:20.377Z,9.15
2022-11-30T18:08:47.014Z,9.15
2022-11-30T18:11:25.210Z,9.15
2022-11-30T18:13:55.072Z,9.16
2022-11-30T18:16:30.550Z,9.16
2022-11-30T18:18:59.501Z,9.16
2022-11-30T18:21:29.732Z,9.18
2022-11-30T18:23:59.028Z,9.15
2022-11-30T18:26:26.877Z,9.15
2022-11-30T18:28:59.028Z,9.16
2022-11-30T18:31:30.067Z,9.16
2022-11-30T18:34:02.391Z,9.16
2022-11-30T18:36:30.907Z,9.17
2022-11-30T18:38:58.009Z,9.17
2022-11-30T18:41:26.428Z,9.18
2022-11-30T18:43:53.690Z,9.19
2022-11-30T18:46:20.909Z,9.19
2022-11-30T18:48:51.829Z,9.19
2022-11-30T18:51:21.203Z,9.22
2022-11-30T18:53:48.046Z,9.21
2022-11-30T18:56:19.807Z,9.22
2022-11-30T18:58:47.575Z,9.21
2022-11-30T19:01:19.414Z,9.22
2022-11-30T19:03:52.831Z,9.22
2022-11-30T19:06:19.926Z,9.22
2022-11-30T19:08:47.805Z,9.22
2022-11-30T19:11:16.278Z,9.22
2022-11-30T19:13:43.417Z,9.22
2022-11-30T19:16:13.023Z,9.22
2022-11-30T19:18:40.107Z,9.22
2022-11-30T19:21:08.803Z,9.23
2022-11-30T19:23:36.849Z,9.21
2022-11-30T19:26:04.917Z,9.19
2022-11-30T19:28:33.036Z,9.18
2022-11-30T19:31:00.276Z,9.18
2022-11-30T19:33:27.912Z,9.18
2022-11-30T19:36:00.655Z,9.19
2022-11-30T19:38:27.252Z,9.19
2022-11-30T19:40:53.915Z,9.20
2022-11-30T19:43:20.612Z,9.21
2022-11-30T19:45:47.280Z,9.21
2022-11-30T19:48:14.003Z,9.22
2022-11-30T19:50:40.626Z,9.23
2022-11-30T19:53:07.270Z,9.23
2022-11-30T19:55:33.868Z,9.25
2022-11-30T19:58:00.593Z,9.25
2022-11-30T20:00:28.249Z,9.26
2022-11-30T20:02:55.099Z,9.26
2022-11-30T20:05:24.190Z,9.26
2022-11-30T20:07:51.151Z,9.27
2022-11-30T20:10:17.919Z,9.27
2022-11-30T20:12:44.567Z,9.27
2022-11-30T20:15:11.517Z,9.28
2022-11-30T20:17:38.413Z,9.27
2022-11-30T20:20:05.750Z,9.28
2022-11-30T20:22:33.642Z,9.26
2022-11-30T20:25:00.358Z,9.26
2022-11-30T20:27:27.046Z,9.27
2022-11-30T20:29:53.996Z,9.26
2022-11-30T20:32:20.714Z,9.26
2022-11-30T20:34:48.345Z,9.27
2022-11-30T20:37:16.921Z,9.28
2022-11-30T20:39:46.055Z,9.26
2022-11-30T20:42:13.315Z,9.26
2022-11-30T20:44:39.951Z,9.26
2022-11-30T20:47:06.667Z,9.26
2022-11-30T20:49:33.405Z,9.26
2022-11-30T20:52:00.048Z,9.26
2022-11-30T20:54:29.402Z,9.26
2022-11-30T20:56:57.541Z,9.25
2022-11-30T20:59:26.624Z,9.26
2022-11-30T21:01:56.794Z,9.26
2022-11-30T21:04:25.774Z,9.27
2022-11-30T21:06:53.434Z,9.27
2022-11-30T21:09:20.803Z,9.26
2022-11-30T21:11:48.455Z,9.26
2022-11-30T21:14:15.652Z,9.27
2022-11-30T21:16:42.346Z,9.26
2022-11-30T21:19:11.888Z,9.26
2022-11-30T21:21:38.698Z,9.27
2022-11-30T21:24:08.053Z,9.26
2022-11-30T21:26:40.369Z,9.27
2022-11-30T21:29:11.683Z,9.26
2022-11-30T21:31:38.571Z,9.24
2022-11-30T21:34:05.407Z,9.23
2022-11-30T21:36:32.543Z,9.25
2022-11-30T21:39:05.655Z,9.24
2022-11-30T21:41:33.709Z,9.24
2022-11-30T21:44:00.384Z,9.27
2022-11-30T21:46:27.202Z,9.25
2022-11-30T21:48:54.062Z,9.25
2022-11-30T21:51:25.984Z,9.27
2022-11-30T21:53:55.638Z,9.27
2022-11-30T21:56:25.109Z,9.26
2022-11-30T21:58:52.467Z,9.26
2022-11-30T22:01:23.470Z,9.24
2022-11-30T22:03:50.350Z,9.25
2022-11-30T22:06:19.090Z,9.25
2022-11-30T22:08:46.692Z,9.25
2022-11-30T22:11:16.615Z,9.23
2022-11-30T22:13:44.213Z,9.23
2022-11-30T22:16:13.646Z,9.23
2022-11-30T22:18:42.027Z,9.24
2022-11-30T22:21:14.139Z,9.23
2022-11-30T22:23:44.425Z,9.22
2022-11-30T22:26:13.922Z,9.22
2022-11-30T22:28:43.743Z,9.22
2022-11-30T22:31:11.990Z,9.21
2022-11-30T22:33:40.651Z,9.21
2022-11-30T22:36:08.735Z,9.21
2022-11-30T22:38:35.501Z,9.18
2022-11-30T22:41:10.576Z,9.18
2022-11-30T22:43:37.355Z,9.17
2022-11-30T22:46:06.782Z,9.15
2022-11-30T22:48:34.230Z,9.13
2022-11-30T22:51:08.170Z,9.11
2022-11-30T22:53:36.193Z,9.08
2022-11-30T22:56:08.797Z,9.06
2022-11-30T22:58:35.758Z,9.03
2022-11-30T23:01:13.195Z,9.00
2022-11-30T23:03:43.025Z,8.98
2022-11-30T23:06:12.363Z,8.96
2022-11-30T23:08:39.125Z,8.92
2022-11-30T23:11:12.463Z,8.90
2022-11-30T23:13:41.175Z,8.86
2022-11-30T23:16:09.228Z,8.78
2022-11-30T23:18:48.548Z,8.77
2022-11-30T23:21:16.678Z,8.74
2022-11-30T23:23:44.080Z,8.72
2022-11-30T23:26:19.902Z,8.71
2022-11-30T23:28:48.963Z,8.64
2022-11-30T23:31:33.853Z,8.62
2022-11-30T23:34:04.747Z,8.53
2022-11-30T23:36:32.317Z,8.50
2022-11-30T23:39:02.050Z,8.41
2022-11-30T23:41:29.088Z,8.34
2022-11-30T23:43:56.491Z,8.28
2022-11-30T23:46:23.866Z,8.26
2022-11-30T23:48:50.867Z,8.20
2022-11-30T23:51:17.601Z,8.15
2022-11-30T23:53:44.476Z,8.12
2022-11-30T23:56:13.752Z,8.05
2022-11-30T23:58:40.408Z,8.03
